createdAt,value
2017-11-28T00:01:16.171Z,99540.20
2017-11-28T00:03:43.547Z,99537.05
2017-11-28T00:06:10.928Z,99536.01
2017-11-28T00:08:38.311Z,99527.28
2017-11-28T00:11:05.705Z,99541.31
2017-11-28T00:13:33.072Z,99548.02
2017-11-28T00:16:00.456Z,99536.59
2017-11-28T00:18:27.831Z,99536.50
2017-11-28T00:20:55.218Z,99530.00
2017-11-28T00:23:22.598Z,99530.52
2017-11-28T00:25:50.004Z,99536.24
2017-11-28T00:28:17.453Z,99534.35
2017-11-28T00:30:44.820Z,99537.77
2017-11-28T00:33:12.207Z,99528.84
2017-11-28T00:35:39.701Z,99533.08
2017-11-28T00:38:07.124Z,99532.91
2017-11-28T00:40:34.500Z,99535.16
2017-11-28T00:43:01.936Z,99537.42
2017-11-28T00:45:29.394Z,99537.14
2017-11-28T00:47:56.784Z,99534.39
2017-11-28T00:50:24.162Z,99531.22
2017-11-28T00:52:51.659Z,99540.81
2017-11-28T00:55:19.039Z,99536.59
2017-11-28T00:57:46.463Z,99532.73
2017-11-28T01:00:13.851Z,99533.02
2017-11-28T01:02:41.240Z,99522.84
2017-11-28T01:05:08.611Z,99529.22
2017-11-28T01:07:35.997Z,99522.45
2017-11-28T01:10:03.448Z,99534.67
2017-11-28T01:12:30.820Z,99529.66
2017-11-28T01:14:58.202Z,99531.52
2017-11-28T01:17:25.588Z,99542.62
2017-11-28T01:19:52.978Z,99541.52
2017-11-28T01:22:20.360Z,99537.67
2017-11-28T01:24:47.744Z,99537.79
2017-11-28T01:27:15.238Z,99535.91
2017-11-28T01:29:42.676Z,99538.82
2017-11-28T01:32:10.072Z,99543.73
2017-11-28T01:34:37.495Z,99541.38
2017-11-28T01:37:04.880Z,99544.50
2017-11-28T01:39:32.271Z,99543.94
2017-11-28T01:41:59.647Z,99541.04
2017-11-28T01:44:27.114Z,99538.55
2017-11-28T01:46:54.501Z,99537.33
2017-11-28T01:49:21.877Z,99538.08
2017-11-28T01:51:49.267Z,99532.53
2017-11-28T01:54:16.663Z,99539.47
2017-11-28T01:56:44.093Z,99536.29
2017-11-28T01:59:11.480Z,99538.02
2017-11-28T02:01:38.905Z,99537.10
2017-11-28T02:04:06.287Z,99537.30
2017-11-28T02:06:33.712Z,99536.91
2017-11-28T02:09:01.098Z,99532.06
2017-11-28T02:11:28.523Z,99541.53
2017-11-28T02:13:55.904Z,99538.22
2017-11-28T02:16:23.300Z,99533.42
2017-11-28T02:18:50.672Z,99531.24
2017-11-28T02:21:18.123Z,99523.88
2017-11-28T02:23:45.515Z,99519.95
2017-11-28T02:26:12.887Z,99520.22
2017-11-28T02:28:40.289Z,99514.63
2017-11-28T02:31:07.667Z,99517.99
2017-11-28T02:33:35.043Z,99511.72
2017-11-28T02:36:02.439Z,99512.47
2017-11-28T02:38:29.807Z,99506.65
2017-11-28T02:41:09.255Z,99508.63
2017-11-28T02:43:36.640Z,99507.09
2017-11-28T02:46:07.040Z,99511.02
2017-11-28T02:48:34.415Z,99511.66
2017-11-28T02:51:01.809Z,99505.22
2017-11-28T02:53:29.206Z,99500.75
2017-11-28T02:55:58.300Z,99498.05
2017-11-28T02:58:26.352Z,99489.32
2017-11-28T03:00:56.295Z,99503.23
2017-11-28T03:03:23.684Z,99502.59
2017-11-28T03:05:51.058Z,99490.52
2017-11-28T03:08:18.468Z,99488.17
2017-11-28T03:10:48.511Z,99490.46
2017-11-28T03:13:17.216Z,99485.28
2017-11-28T03:15:46.965Z,99492.67
2017-11-28T03:18:19.047Z,99483.58
2017-11-28T03:20:47.361Z,99491.22
2017-11-28T03:26:12.264Z,99489.83
2017-11-28T03:28:59.287Z,99477.14
2017-11-28T03:31:26.680Z,99469.44
2017-11-28T03:34:08.995Z,99472.90
2017-11-28T03:36:36.452Z,99465.45
2017-11-28T03:39:03.839Z,99466.45
2017-11-28T03:41:31.244Z,99459.66
2017-11-28T03:43:58.615Z,99454.25
2017-11-28T03:46:26.774Z,99447.30
2017-11-28T03:49:08.940Z,99446.80
2017-11-28T03:51:36.324Z,99442.56
2017-11-28T03:54:03.700Z,99440.80
2017-11-28T03:56:31.085Z,99441.39
2017-11-28T03:58:58.524Z,99435.14
2017-11-28T04:01:25.929Z,99431.54
2017-11-28T04:03:53.300Z,99431.66
2017-11-28T04:06:20.777Z,99432.92
2017-11-28T04:08:48.163Z,99429.69
2017-11-28T04:11:15.543Z,99428.44
2017-11-28T04:13:42.936Z,99425.90
2017-11-28T04:16:10.328Z,99427.42
2017-11-28T04:18:37.753Z,99429.57
2017-11-28T04:21:05.212Z,99419.42
2017-11-28T04:23:32.659Z,99425.00
2017-11-28T04:26:00.128Z,99426.98
2017-11-28T04:28:27.526Z,99423.67
2017-11-28T04:30:54.899Z,99430.56
2017-11-28T04:33:22.279Z,99431.98
2017-11-28T04:35:49.747Z,99429.84
2017-11-28T04:38:17.212Z,99435.01
2017-11-28T04:40:44.580Z,99438.94
2017-11-28T04:43:11.981Z,99431.48
2017-11-28T04:45:39.352Z,99438.05
2017-11-28T04:48:06.728Z,99435.78
2017-11-28T04:50:34.111Z,99445.00
2017-11-28T04:53:01.502Z,99445.09
2017-11-28T04:55:28.884Z,99446.55
2017-11-28T04:57:56.276Z,99438.22
2017-11-28T05:00:23.666Z,99438.89
2017-11-28T05:02:51.035Z,99435.73
2017-11-28T05:05:18.428Z,99432.48
2017-11-28T05:07:45.810Z,99433.19
2017-11-28T05:10:13.195Z,99427.88
2017-11-28T05:12:40.576Z,99429.45
2017-11-28T05:15:07.964Z,99414.87
2017-11-28T05:17:35.351Z,99420.45
2017-11-28T05:20:02.748Z,99425.73
2017-11-28T05:22:30.118Z,99427.23
2017-11-28T05:24:57.495Z,99429.65
2017-11-28T05:27:24.907Z,99429.91
2017-11-28T05:29:52.305Z,99424.38
2017-11-28T05:32:19.681Z,99425.70
2017-11-28T05:34:47.083Z,99423.52
2017-11-28T05:37:14.463Z,99421.07
2017-11-28T05:39:41.852Z,99418.53
2017-11-28T05:42:09.235Z,99436.31
2017-11-28T05:44:36.679Z,99431.41
2017-11-28T05:47:04.076Z,99432.25
2017-11-28T05:49:31.473Z,99434.17
2017-11-28T05:51:58.858Z,99428.04
2017-11-28T05:54:26.243Z,99427.28
2017-11-28T05:56:53.636Z,99424.99
2017-11-28T05:59:21.064Z,99433.20
2017-11-28T06:01:48.452Z,99431.00
2017-11-28T06:04:15.828Z,99428.66
2017-11-28T06:06:43.222Z,99440.39
2017-11-28T06:09:10.609Z,99437.77
2017-11-28T06:11:37.983Z,99434.25
2017-11-28T06:14:05.363Z,99437.41
2017-11-28T06:16:33.294Z,99424.88
2017-11-28T06:19:00.686Z,99424.13
2017-11-28T06:21:28.069Z,99415.89
2017-11-28T06:23:55.456Z,99404.58
2017-11-28T06:26:22.847Z,99422.87
2017-11-28T06:28:50.222Z,99421.23
2017-11-28T06:31:17.605Z,99428.53
2017-11-28T06:33:45.012Z,99425.58
2017-11-28T06:36:12.456Z,99431.98
2017-11-28T06:38:39.849Z,99438.68
2017-11-28T06:41:07.240Z,99433.84
2017-11-28T06:43:34.631Z,99427.90
2017-11-28T06:46:02.004Z,99432.97
2017-11-28T06:48:29.391Z,99435.14
2017-11-28T06:50:56.779Z,99438.80
2017-11-28T06:53:24.163Z,99441.00
2017-11-28T06:55:51.556Z,99436.59
2017-11-28T06:58:18.945Z,99433.08
2017-11-28T07:00:46.367Z,99425.35
2017-11-28T07:03:13.803Z,99429.44
2017-11-28T07:05:41.184Z,99424.19
2017-11-28T07:08:08.567Z,99434.51
2017-11-28T07:10:35.977Z,99439.55
2017-11-28T07:13:03.372Z,99435.65
2017-11-28T07:15:30.751Z,99439.44
2017-11-28T07:17:58.136Z,99435.23
2017-11-28T07:20:25.511Z,99437.57
2017-11-28T07:22:52.895Z,99432.53
2017-11-28T07:25:20.287Z,99435.98
2017-11-28T07:27:47.680Z,99434.89
2017-11-28T07:30:15.056Z,99437.85
2017-11-28T07:32:42.479Z,99433.35
2017-11-28T07:35:09.903Z,99439.72
2017-11-28T07:37:37.292Z,99442.31
2017-11-28T07:40:04.675Z,99449.22
2017-11-28T07:42:32.070Z,99442.58
2017-11-28T07:44:59.449Z,99450.45
2017-11-28T07:47:26.843Z,99444.63
2017-11-28T07:49:54.207Z,99446.09
2017-11-28T07:52:21.595Z,99440.41
2017-11-28T07:54:48.984Z,99445.11
2017-11-28T07:57:16.368Z,99449.62
2017-11-28T07:59:43.739Z,99443.03
2017-11-28T08:02:11.135Z,99451.93
2017-11-28T08:04:38.510Z,99467.81
2017-11-28T08:07:05.928Z,99470.90
2017-11-28T08:09:33.324Z,99456.69
2017-11-28T08:12:00.712Z,99461.92
2017-11-28T08:14:28.095Z,99466.02
2017-11-28T08:16:55.484Z,99461.52
2017-11-28T08:19:22.868Z,99457.19
2017-11-28T08:21:50.260Z,99467.19
2017-11-28T08:24:17.663Z,99463.95
2017-11-28T08:26:45.052Z,99470.38
2017-11-28T08:29:12.443Z,99468.79
2017-11-28T08:31:39.834Z,99463.30
2017-11-28T08:34:07.221Z,99473.10
2017-11-28T08:36:34.607Z,99469.25
2017-11-28T08:39:02.008Z,99468.03
2017-11-28T08:41:29.368Z,99459.72
2017-11-28T08:43:56.752Z,99460.81
2017-11-28T08:46:24.127Z,99471.25
2017-11-28T08:48:51.516Z,99472.09
2017-11-28T08:51:18.892Z,99462.52
2017-11-28T08:53:46.293Z,99467.69
2017-11-28T08:56:13.684Z,99469.99
2017-11-28T08:58:41.074Z,99457.43
2017-11-28T09:01:08.461Z,99465.59
2017-11-28T09:03:35.848Z,99471.14
2017-11-28T09:06:03.231Z,99472.62
2017-11-28T09:08:30.620Z,99471.59
2017-11-28T09:10:58.001Z,99463.81
2017-11-28T09:13:25.395Z,99480.85
2017-11-28T09:15:52.772Z,99471.75
2017-11-28T09:18:20.158Z,99473.74
2017-11-28T09:20:47.541Z,99473.19
2017-11-28T09:23:14.931Z,99481.83
2017-11-28T09:25:42.307Z,99475.33
2017-11-28T09:28:09.691Z,99471.84
2017-11-28T09:30:37.071Z,99475.36
2017-11-28T09:33:04.455Z,99478.44
2017-11-28T09:35:31.917Z,99471.09
2017-11-28T09:37:59.304Z,99471.36
2017-11-28T09:40:26.686Z,99478.59
2017-11-28T09:42:54.093Z,99475.22
2017-11-28T09:45:21.479Z,99479.81
2017-11-28T09:47:48.905Z,99467.34
2017-11-28T09:50:16.284Z,99465.72
2017-11-28T09:52:43.677Z,99463.61
2017-11-28T09:55:11.072Z,99470.41
2017-11-28T09:57:38.448Z,99455.55
2017-11-28T10:00:05.839Z,99470.41
2017-11-28T10:02:33.229Z,99468.89
2017-11-28T10:05:00.660Z,99459.31
2017-11-28T10:07:28.123Z,99472.48
2017-11-28T10:09:55.517Z,99474.31
2017-11-28T10:12:22.900Z,99474.31
2017-11-28T10:14:50.294Z,99458.50
2017-11-28T10:17:17.760Z,99460.09
2017-11-28T10:19:45.143Z,99475.60
2017-11-28T10:22:12.524Z,99466.80
2017-11-28T10:24:39.918Z,99462.51
2017-11-28T10:27:07.291Z,99457.88
2017-11-28T10:29:34.685Z,99465.25
2017-11-28T10:32:02.072Z,99457.05
2017-11-28T10:34:29.527Z,99458.71
2017-11-28T10:36:56.903Z,99451.27
2017-11-28T10:39:24.300Z,99459.22
2017-11-28T10:41:51.691Z,99453.26
2017-11-28T10:44:19.065Z,99448.84
2017-11-28T10:49:20.360Z,99457.63
2017-11-28T10:51:47.735Z,99459.95
2017-11-28T10:54:15.112Z,99465.90
2017-11-28T10:56:42.508Z,99468.56
2017-11-28T10:59:09.929Z,99458.48
2017-11-28T11:01:37.399Z,99452.53
2017-11-28T11:04:04.776Z,99448.65
2017-11-28T11:06:32.182Z,99449.38
2017-11-28T11:08:59.593Z,99444.30
2017-11-28T11:11:26.971Z,99446.33
2017-11-28T11:13:54.427Z,99451.16
2017-11-28T11:16:21.872Z,99440.41
2017-11-28T11:18:49.251Z,99441.88
2017-11-28T11:21:16.627Z,99446.91
2017-11-28T11:23:43.998Z,99455.89
2017-11-28T11:26:11.507Z,99451.95
2017-11-28T11:28:38.944Z,99458.93
2017-11-28T11:31:06.328Z,99472.70
2017-11-28T11:33:33.758Z,99459.05
2017-11-28T11:36:01.232Z,99456.12
2017-11-28T11:38:28.607Z,99452.17
2017-11-28T11:40:56.016Z,99454.39
2017-11-28T11:43:23.394Z,99455.11
2017-11-28T11:45:50.776Z,99443.13
2017-11-28T11:48:18.156Z,99445.50
2017-11-28T11:50:45.544Z,99460.99
2017-11-28T11:53:12.923Z,99454.06
2017-11-28T11:55:40.314Z,99445.48
2017-11-28T11:58:07.697Z,99451.91
2017-11-28T12:00:35.075Z,99442.50
2017-11-28T12:03:02.464Z,99449.53
2017-11-28T12:05:29.864Z,99446.93
2017-11-28T12:07:57.315Z,99453.06
2017-11-28T12:10:24.780Z,99457.05
2017-11-28T12:12:52.235Z,99459.63
2017-11-28T12:15:19.628Z,99453.98
2017-11-28T12:17:47.039Z,99461.34
2017-11-28T12:20:14.499Z,99461.18
2017-11-28T12:22:41.964Z,99455.13
2017-11-28T12:25:09.348Z,99457.53
2017-11-28T12:27:36.727Z,99444.17
2017-11-28T12:30:04.123Z,99456.32
2017-11-28T12:32:32.399Z,99449.75
2017-11-28T12:34:59.783Z,99445.16
2017-11-28T12:37:27.211Z,99451.36
2017-11-28T12:39:54.595Z,99450.02
2017-11-28T12:42:21.971Z,99455.27
2017-11-28T12:44:49.355Z,99453.95
2017-11-28T12:47:16.722Z,99461.14
2017-11-28T12:49:44.103Z,99457.47
2017-11-28T12:52:11.519Z,99453.68
2017-11-28T12:54:38.991Z,99453.49
2017-11-28T12:57:06.367Z,99455.57
2017-11-28T12:59:33.803Z,99453.20
2017-11-28T13:02:01.260Z,99452.75
2017-11-28T13:04:28.660Z,99457.25
2017-11-28T13:06:56.062Z,99458.88
2017-11-28T13:09:23.533Z,99455.52
2017-11-28T13:11:50.983Z,99457.73
2017-11-28T13:14:18.447Z,99461.52
2017-11-28T13:16:45.892Z,99458.55
2017-11-28T13:19:13.279Z,99464.37
2017-11-28T13:21:40.658Z,99466.77
2017-11-28T13:24:08.040Z,99464.59
2017-11-28T13:26:35.415Z,99462.70
2017-11-28T13:29:02.810Z,99462.34
2017-11-28T13:31:30.204Z,99461.51
2017-11-28T13:33:57.589Z,99457.76
2017-11-28T13:36:24.955Z,99459.51
2017-11-28T13:38:52.392Z,99460.77
2017-11-28T13:41:19.779Z,99460.77
2017-11-28T13:43:47.159Z,99459.19
2017-11-28T13:46:14.544Z,99456.20
2017-11-28T13:48:41.933Z,99452.67
2017-11-28T13:51:09.366Z,99463.17
2017-11-28T13:53:36.754Z,99462.59
2017-11-28T13:56:04.128Z,99467.58
2017-11-28T13:58:31.529Z,99468.41
2017-11-28T14:00:58.907Z,99466.22
2017-11-28T14:03:26.292Z,99469.85
2017-11-28T14:05:53.684Z,99467.09
2017-11-28T14:08:21.074Z,99473.00
2017-11-28T14:10:48.450Z,99471.11
2017-11-28T14:13:15.832Z,99473.03
2017-11-28T14:15:43.216Z,99468.77
2017-11-28T14:18:10.606Z,99466.67
2017-11-28T14:20:38.235Z,99476.63
2017-11-28T14:23:11.350Z,99478.84
2017-11-28T14:25:40.992Z,99484.79
2017-11-28T14:28:12.905Z,99480.00
2017-11-28T14:30:42.730Z,99480.67
2017-11-28T14:33:14.060Z,99479.66
2017-11-28T14:35:44.788Z,99476.81
2017-11-28T14:38:12.220Z,99478.20
2017-11-28T14:40:39.564Z,99488.48
2017-11-28T14:43:11.261Z,99488.61
2017-11-28T14:45:40.981Z,99495.75
2017-11-28T14:48:08.355Z,99498.13
2017-11-28T14:50:41.251Z,99490.94
2017-11-28T14:53:08.625Z,99493.70
2017-11-28T14:55:41.491Z,99494.10
2017-11-28T14:58:25.443Z,99499.97
2017-11-28T15:04:19.293Z,99503.38
2017-11-28T15:07:02.448Z,99502.75
2017-11-28T15:09:35.375Z,99492.53
2017-11-28T15:12:19.549Z,99501.64
2017-11-28T15:17:54.537Z,99502.86
2017-11-28T15:20:27.607Z,99504.20
2017-11-28T15:22:54.981Z,99510.94
2017-11-28T15:25:22.376Z,99506.72
2017-11-28T15:27:49.748Z,99505.91
2017-11-28T15:30:17.128Z,99502.78
2017-11-28T15:32:44.505Z,99509.05
2017-11-28T15:35:11.960Z,99512.73
2017-11-28T15:37:39.347Z,99513.81
2017-11-28T15:40:06.724Z,99511.75
2017-11-28T15:42:34.108Z,99515.89
2017-11-28T15:45:01.587Z,99511.77
2017-11-28T15:47:28.984Z,99514.94
2017-11-28T15:49:56.360Z,99527.78
2017-11-28T15:52:23.740Z,99520.61
2017-11-28T15:54:51.116Z,99521.22
2017-11-28T15:57:18.508Z,99516.24
2017-11-28T15:59:45.890Z,99510.23
2017-11-28T16:02:13.284Z,99518.85
2017-11-28T16:04:40.682Z,99533.77
2017-11-28T16:07:08.071Z,99532.00
2017-11-28T16:09:35.553Z,99530.54
2017-11-28T16:12:02.935Z,99536.20
2017-11-28T16:14:30.311Z,99533.16
2017-11-28T16:16:57.730Z,99533.37
2017-11-28T16:19:25.096Z,99536.52
2017-11-28T16:21:52.478Z,99533.52
2017-11-28T16:24:19.956Z,99531.97
2017-11-28T16:26:47.350Z,99531.92
2017-11-28T16:29:14.730Z,99525.26
2017-11-28T16:31:42.099Z,99523.53
2017-11-28T16:34:09.584Z,99524.83
2017-11-28T16:36:36.960Z,99527.93
2017-11-28T16:39:04.347Z,99524.33
2017-11-28T16:41:31.731Z,99529.66
2017-11-28T16:43:59.121Z,99525.27
2017-11-28T16:46:26.495Z,99528.80
2017-11-28T16:48:53.911Z,99529.28
2017-11-28T16:51:21.292Z,99536.43
2017-11-28T16:53:48.673Z,99537.05
2017-11-28T16:56:16.055Z,99544.37
2017-11-28T16:58:43.436Z,99537.61
2017-11-28T17:01:10.855Z,99539.52
2017-11-28T17:03:38.240Z,99536.78
2017-11-28T17:06:05.625Z,99540.42
2017-11-28T17:08:33.014Z,99543.55
2017-11-28T17:11:00.392Z,99541.59
2017-11-28T17:13:27.782Z,99539.78
2017-11-28T17:15:55.156Z,99540.00
2017-11-28T17:18:22.561Z,99542.28
2017-11-28T17:20:49.990Z,99540.15
2017-11-28T17:23:17.435Z,99541.13
2017-11-28T17:25:44.832Z,99535.75
2017-11-28T17:28:12.251Z,99533.11
2017-11-28T17:30:39.636Z,99542.34
2017-11-28T17:33:07.056Z,99528.06
2017-11-28T17:35:34.436Z,99532.36
2017-11-28T17:38:01.819Z,99533.31
2017-11-28T17:40:29.203Z,99535.53
2017-11-28T17:42:56.679Z,99534.64
2017-11-28T17:45:24.079Z,99525.94
2017-11-28T17:47:51.447Z,99526.39
2017-11-28T17:50:18.860Z,99524.89
2017-11-28T17:52:46.222Z,99531.50
2017-11-28T17:55:13.644Z,99531.91
2017-11-28T17:57:40.996Z,99533.81
2017-11-28T18:00:08.389Z,99525.37
2017-11-28T18:02:35.822Z,99531.37
2017-11-28T18:05:03.195Z,99527.80
2017-11-28T18:07:30.584Z,99537.50
2017-11-28T18:09:57.956Z,99536.69
2017-11-28T18:12:25.350Z,99538.81
2017-11-28T18:14:52.739Z,99537.94
2017-11-28T18:17:20.159Z,99542.30
2017-11-28T18:19:47.552Z,99548.17
2017-11-28T18:22:14.940Z,99543.47
2017-11-28T18:24:42.364Z,99552.92
2017-11-28T18:27:09.753Z,99553.45
2017-11-28T18:29:37.228Z,99555.17
2017-11-28T18:32:04.612Z,99556.44
2017-11-28T18:34:31.992Z,99561.32
2017-11-28T18:36:59.375Z,99549.58
2017-11-28T18:39:26.756Z,99553.03
2017-11-28T18:41:54.143Z,99556.56
2017-11-28T18:44:21.531Z,99560.70
2017-11-28T18:46:48.916Z,99556.15
2017-11-28T18:49:16.369Z,99557.06
2017-11-28T18:51:43.761Z,99550.55
2017-11-28T18:54:11.180Z,99552.76
2017-11-28T18:56:38.578Z,99554.15
2017-11-28T18:59:05.962Z,99551.39
2017-11-28T19:01:33.378Z,99555.32
2017-11-28T19:04:00.802Z,99557.75
2017-11-28T19:06:28.250Z,99559.12
2017-11-28T19:08:55.683Z,99559.11
2017-11-28T19:11:23.067Z,99562.10
2017-11-28T19:13:50.455Z,99567.83
2017-11-28T19:16:17.837Z,99564.39
2017-11-28T19:18:45.227Z,99567.48
2017-11-28T19:21:12.692Z,99563.55
2017-11-28T19:23:40.075Z,99562.80
2017-11-28T19:26:07.500Z,99572.56
2017-11-28T19:28:34.895Z,99562.58
2017-11-28T19:31:02.310Z,99561.75
2017-11-28T19:33:29.699Z,99568.10
2017-11-28T19:35:57.093Z,99562.80
2017-11-28T19:38:24.492Z,99570.31
2017-11-28T19:40:51.866Z,99569.30
2017-11-28T19:43:19.264Z,99565.81
2017-11-28T19:45:46.660Z,99568.91
2017-11-28T19:48:14.072Z,99568.69
2017-11-28T19:50:41.480Z,99564.14
2017-11-28T19:53:08.868Z,99566.64
2017-11-28T19:55:36.264Z,99570.92
2017-11-28T19:58:03.663Z,99562.22
2017-11-28T20:00:31.072Z,99566.28
2017-11-28T20:02:58.464Z,99563.58
2017-11-28T20:05:25.859Z,99559.87
2017-11-28T20:07:53.254Z,99561.45
2017-11-28T20:10:20.650Z,99565.28
2017-11-28T20:12:48.036Z,99567.84
2017-11-28T20:15:15.435Z,99569.08
2017-11-28T20:17:42.836Z,99566.98
2017-11-28T20:20:10.242Z,99561.34
2017-11-28T20:22:37.628Z,99569.36
2017-11-28T20:25:05.011Z,99570.72
2017-11-28T20:27:32.395Z,99579.53
2017-11-28T20:29:59.819Z,99575.41
2017-11-28T20:32:27.211Z,99581.50
2017-11-28T20:34:54.620Z,99573.16
2017-11-28T20:37:22.080Z,99573.23
2017-11-28T20:39:49.467Z,99570.12
2017-11-28T20:42:16.876Z,99571.66
2017-11-28T20:44:44.259Z,99572.45
2017-11-28T20:47:11.696Z,99566.87
2017-11-28T20:49:39.108Z,99569.88
2017-11-28T20:52:06.510Z,99575.56
2017-11-28T20:54:33.907Z,99575.66
2017-11-28T20:57:01.297Z,99573.20
2017-11-28T20:59:28.765Z,99573.95
2017-11-28T21:01:56.163Z,99571.38
2017-11-28T21:04:23.580Z,99565.36
2017-11-28T21:06:51.043Z,99560.27
2017-11-28T21:09:18.512Z,99568.72
2017-11-28T21:11:45.911Z,99566.30
2017-11-28T21:14:13.324Z,99565.66
2017-11-28T21:16:40.711Z,99561.64
2017-11-28T21:19:08.104Z,99565.70
2017-11-28T21:21:35.590Z,99568.88
2017-11-28T21:24:02.970Z,99568.88
2017-11-28T21:26:30.364Z,99568.48
2017-11-28T21:28:57.757Z,99571.03
2017-11-28T21:31:25.152Z,99571.94
2017-11-28T21:33:52.532Z,99568.97
2017-11-28T21:36:19.928Z,99567.97
2017-11-28T21:38:47.321Z,99571.75
2017-11-28T21:41:14.708Z,99568.45
2017-11-28T21:43:42.098Z,99570.03
2017-11-28T21:46:09.524Z,99574.63
2017-11-28T21:48:36.924Z,99567.00
2017-11-28T21:51:04.324Z,99567.57
2017-11-28T21:53:31.706Z,99573.23
2017-11-28T21:55:59.100Z,99572.13
2017-11-28T21:58:26.552Z,99566.64
2017-11-28T22:00:54.052Z,99577.30
2017-11-28T22:03:21.444Z,99581.31
2017-11-28T22:05:48.835Z,99578.43
2017-11-28T22:08:16.263Z,99585.44
2017-11-28T22:10:43.651Z,99572.54
2017-11-28T22:13:11.045Z,99582.58
2017-11-28T22:15:38.427Z,99582.36
2017-11-28T22:18:05.846Z,99587.80
2017-11-28T22:20:33.232Z,99591.41
2017-11-28T22:23:00.624Z,99589.63
2017-11-28T22:25:28.016Z,99582.51
2017-11-28T22:27:55.470Z,99588.40
2017-11-28T22:30:22.857Z,99589.99
2017-11-28T22:32:50.361Z,99582.58
2017-11-28T22:35:17.745Z,99587.45
2017-11-28T22:37:45.147Z,99588.42
2017-11-28T22:40:12.608Z,99588.50
2017-11-28T22:42:40.058Z,99589.79
2017-11-28T22:45:07.448Z,99588.11
2017-11-28T22:47:34.851Z,99590.05
2017-11-28T22:50:02.241Z,99597.38
2017-11-28T22:52:29.697Z,99590.63
2017-11-28T22:54:57.084Z,99594.03
2017-11-28T22:57:24.471Z,99591.09
2017-11-28T22:59:51.863Z,99590.60
2017-11-28T23:02:19.251Z,99588.98
2017-11-28T23:04:46.635Z,99591.83
2017-11-28T23:07:14.107Z,99588.98
2017-11-28T23:09:41.570Z,99589.69
2017-11-28T23:12:09.055Z,99589.78
2017-11-28T23:14:46.265Z,99587.38
2017-11-28T23:17:13.664Z,99583.73
2017-11-28T23:19:41.048Z,99589.16
2017-11-28T23:22:08.443Z,99589.66
2017-11-28T23:24:35.835Z,99595.63
2017-11-28T23:27:03.220Z,99593.93
2017-11-28T23:29:30.615Z,99596.52
2017-11-28T23:31:58.092Z,99597.85
2017-11-28T23:34:25.498Z,99589.30
2017-11-28T23:36:52.928Z,99589.27
2017-11-28T23:39:20.328Z,99589.58
2017-11-28T23:41:47.723Z,99585.77
2017-11-28T23:44:15.123Z,99586.28
2017-11-28T23:46:42.512Z,99592.74
2017-11-28T23:49:09.907Z,99594.69
2017-11-28T23:51:37.292Z,99593.03
2017-11-28T23:54:04.795Z,99592.90
2017-11-28T23:56:32.256Z,99587.91
2017-11-28T23:58:59.708Z,99592.94
